Bala Cynwyd, PA (19004)

5:00 AM EDT on August 26, 2016 (GMT -0400)
APRSWXNET | | Change Station

Elev 246 ft 40.02 °N, 75.23 °W | Updated 22 minutes ago

Clear
Clear
74 °F
Feels Like 72 °F
N
0
Wind Variable Wind from SE
Gusts 2.0 mph

Today
High -- | Low -- °F
--% Chance of Precip.
Yesterday
High -- | Low -- °F
Precip. -- in
Pressure 29.99 in
Visibility 10.0 miles
Clouds Clear
Heat Index 72 °F
Dew Point 71 °F
Humidity 91%
Rainfall in
Snow Depth Not available.
6:23 AM 7:40 PM
Last Quarter, 36% visible
METAR KLOM 260855Z AUTO 21004KT 10SM CLR 23/22 A2999 RMK AO1
Pressure 29.99 in
Visibility 10.0 miles
Clouds Clear
Heat Index 72 °F
Dew Point 71 °F
Humidity 91%
Rainfall in
Snow Depth Not available.
6:23 AM 7:40 PM
Last Quarter, 36% visible
METAR KLOM 260855Z AUTO 21004KT 10SM CLR 23/22 A2999 RMK AO1

10-Day Weather Forecast

Almanac

Astronomy

Aug. 26, 2016 Rise Set
Actual Time
Civil Twilight
Nautical Twilight
Astronomical Twilight
Moon
Length of Visible Light
Length of Day
Tomorrow will be .
, % of the Moon is Illuminated

Today's Extremes

State Highs State Lows

Community

WunderPhotos

Upload Photos

1,935,062 photos uploaded!

WunderBlog® & News

Nearby

Air Quality

  Air Quality AQ Index Pollutant
Not available.

Snow Depth

Station Depth Elevation

Earthquake Activity

City Distance Mag. Time & Date
Minimum magnitude displayed is 2.5.

Coastal Water Temperatures

Place Temperature

Stations

Nearby Weather Stations

Station Location Temp. Windchill Dew Point Humidity Wind Precip. Elev Updated Type
                   

Watches & Warnings

There are currently no watches in effect.